Time;durP1;ratioP1;P1;durP2;ratioP2;P2;SDS_P1;SDS_P2;PMS_P1;PMS_P2;Temp;Humidity;BMP_temperature;BMP_pressure;BME280_temperature;BME280_humidity;BME280_pressure;Samples;Min_cycle;Max_cycle;Signal;HPM_P1;HPM_P2
2022/03/02 00:00:58;;;;;;;32.17;18.70;;;5.20;99.90;;;;;;5070753;28;20064;-71
2022/03/02 00:03:26;;;;;;;37.78;20.77;;;5.20;99.90;;;;;;5071192;28;20048;-71
2022/03/02 00:05:53;;;;;;;31.55;19.27;;;5.20;99.90;;;;;;5070337;28;20049;-71
2022/03/02 00:08:23;;;;;;;38.42;21.30;;;5.20;99.90;;;;;;5070755;28;20052;-71
2022/03/02 00:10:50;;;;;;;31.95;20.52;;;5.20;99.90;;;;;;5070876;28;20105;-72
2022/03/02 00:13:17;;;;;;;29.02;20.35;;;5.20;99.90;;;;;;5070234;28;20048;-72
2022/03/02 00:15:44;;;;;;;31.30;19.17;;;5.30;99.90;;;;;;5070481;28;20052;-72
2022/03/02 00:18:10;;;;;;;34.92;19.48;;;5.30;99.90;;;;;;5069717;28;20102;-72
2022/03/02 00:20:41;;;;;;;29.27;19.25;;;5.30;99.90;;;;;;5069954;28;20113;-73
2022/03/02 00:23:08;;;;;;;31.38;19.50;;;5.30;99.90;;;;;;5071865;28;20084;-73
2022/03/02 00:25:35;;;;;;;34.13;19.80;;;5.30;99.90;;;;;;5070240;28;20052;-71
2022/03/02 00:28:02;;;;;;;36.83;20.55;;;5.30;99.90;;;;;;5070046;28;20419;-72
2022/03/02 00:30:30;;;;;;;33.55;19.17;;;5.20;99.90;;;;;;5070630;28;20064;-73
2022/03/02 00:32:59;;;;;;;33.40;20.48;;;5.20;99.90;;;;;;5070473;28;20483;-72
2022/03/02 00:35:26;;;;;;;31.27;18.65;;;5.20;99.90;;;;;;5069767;28;20048;-72
2022/03/02 00:37:54;;;;;;;32.58;19.92;;;5.30;99.90;;;;;;5070495;28;20140;-72
2022/03/02 00:40:21;;;;;;;33.13;20.63;;;5.20;99.90;;;;;;5069708;28;20084;-72
2022/03/02 00:42:48;;;;;;;36.50;20.00;;;5.20;99.90;;;;;;5070306;28;20126;-71
2022/03/02 00:45:15;;;;;;;32.40;20.52;;;5.20;99.90;;;;;;5070445;28;20052;-70
2022/03/02 00:47:42;;;;;;;34.97;19.80;;;5.20;99.90;;;;;;5069464;28;20466;-71
2022/03/02 00:50:10;;;;;;;29.60;19.23;;;5.20;99.90;;;;;;5070300;28;20155;-71
2022/03/02 00:52:37;;;;;;;34.95;19.83;;;5.20;99.90;;;;;;5070066;28;20115;-72
2022/03/02 00:55:05;;;;;;;35.90;20.27;;;5.10;99.90;;;;;;5069501;28;20056;-73
2022/03/02 00:57:32;;;;;;;35.65;21.42;;;5.10;99.90;;;;;;5070178;28;20048;-69
2022/03/02 00:59:59;;;;;;;31.83;20.75;;;5.10;99.90;;;;;;5069622;28;20515;-70
2022/03/02 01:02:26;;;;;;;32.53;20.90;;;5.10;99.90;;;;;;5069350;28;20045;-70
2022/03/02 01:04:53;;;;;;;32.60;20.77;;;5.10;99.90;;;;;;5069888;28;20052;-70
2022/03/02 01:07:23;;;;;;;34.25;20.83;;;5.00;99.90;;;;;;5070087;28;20168;-72
2022/03/02 01:09:50;;;;;;;36.90;21.83;;;5.00;99.90;;;;;;5069134;28;20401;-71
2022/03/02 01:12:18;;;;;;;38.22;22.85;;;5.00;99.90;;;;;;5070177;28;20483;-72
2022/03/02 01:14:45;;;;;;;35.83;22.30;;;5.00;99.90;;;;;;5070026;28;20116;-71
2022/03/02 01:17:12;;;;;;;33.88;20.63;;;4.90;99.90;;;;;;5069223;28;20056;-71
2022/03/02 01:19:42;;;;;;;37.22;22.35;;;4.90;99.90;;;;;;5069666;28;20068;-72
2022/03/02 01:22:09;;;;;;;35.20;21.30;;;5.00;99.90;;;;;;5071243;28;20103;-72
2022/03/02 01:24:36;;;;;;;34.90;21.05;;;4.90;99.90;;;;;;5069219;28;20101;-72
2022/03/02 01:27:03;;;;;;;37.05;22.20;;;4.90;99.90;;;;;;5069847;28;20102;-72
2022/03/02 01:29:33;;;;;;;36.30;22.15;;;4.90;99.90;;;;;;5069027;28;20105;-73
2022/03/02 01:32:00;;;;;;;34.38;21.52;;;4.90;99.90;;;;;;5069824;28;20053;-71
2022/03/02 01:34:27;;;;;;;37.80;22.45;;;4.90;99.90;;;;;;5070021;28;20056;-72
2022/03/02 01:36:54;;;;;;;41.30;23.40;;;4.90;99.90;;;;;;5069168;28;20491;-71
2022/03/02 01:39:21;;;;;;;34.22;22.38;;;4.90;99.90;;;;;;5069370;28;20514;-72
2022/03/02 01:41:48;;;;;;;38.45;22.50;;;4.90;99.90;;;;;;5069491;28;20053;-72
2022/03/02 01:44:16;;;;;;;38.65;23.08;;;4.90;99.90;;;;;;5069106;28;20048;-71
2022/03/02 01:46:44;;;;;;;41.25;22.27;;;4.90;99.90;;;;;;5069216;28;20094;-71
2022/03/02 01:49:12;;;;;;;31.73;21.48;;;4.90;99.90;;;;;;5069515;28;20048;-73
2022/03/02 01:51:39;;;;;;;34.17;21.52;;;4.80;99.90;;;;;;5069216;28;20086;-71
2022/03/02 01:54:09;;;;;;;36.60;22.20;;;4.80;99.90;;;;;;5069815;28;20052;-70
2022/03/02 01:56:36;;;;;;;35.00;22.05;;;4.80;99.90;;;;;;5070584;28;20048;-71
2022/03/02 01:59:05;;;;;;;36.20;22.63;;;4.80;99.90;;;;;;5068677;28;20106;-72
2022/03/02 02:01:32;;;;;;;34.25;22.63;;;4.80;99.90;;;;;;5069028;28;20061;-71
2022/03/02 02:04:01;;;;;;;36.00;21.90;;;4.70;99.90;;;;;;5069319;28;20051;-71
2022/03/02 02:06:29;;;;;;;39.28;22.27;;;4.70;99.90;;;;;;5068534;28;20053;-71
2022/03/02 02:08:56;;;;;;;37.00;23.17;;;4.70;99.90;;;;;;5069417;28;20087;-70
2022/03/02 02:11:22;;;;;;;41.97;22.20;;;4.60;99.90;;;;;;5069582;28;20049;-71
2022/03/02 02:13:49;;;;;;;39.45;24.27;;;4.60;99.90;;;;;;5071793;28;20102;-71
2022/03/02 02:16:17;;;;;;;40.22;23.05;;;4.60;99.90;;;;;;5072926;28;20048;-71
2022/03/02 02:18:44;;;;;;;37.17;22.88;;;4.50;99.90;;;;;;5073251;28;20150;-70
2022/03/02 02:21:12;;;;;;;39.30;23.58;;;4.50;99.90;;;;;;5072529;28;20056;-71
2022/03/02 02:23:40;;;;;;;37.70;23.95;;;4.40;99.90;;;;;;5072920;28;20080;-70
2022/03/02 02:26:07;;;;;;;45.30;24.80;;;4.40;99.90;;;;;;5072140;28;20061;-71
2022/03/02 02:28:34;;;;;;;37.58;23.92;;;5.30;99.90;;;;;;5072689;28;20048;-70
2022/03/02 02:31:03;;;;;;;39.15;24.33;;;4.30;99.90;;;;;;5072777;28;20113;-71
2022/03/02 02:33:30;;;;;;;39.92;24.02;;;4.30;99.90;;;;;;5072317;28;20052;-72
2022/03/02 02:35:59;;;;;;;41.03;23.92;;;4.20;99.90;;;;;;5055840;28;20076;-72
2022/03/02 02:38:27;;;;;;;40.15;23.92;;;4.20;99.90;;;;;;5072397;28;20052;-71
2022/03/02 02:40:54;;;;;;;43.33;25.13;;;4.10;99.90;;;;;;5071705;28;20488;-72
2022/03/02 02:43:23;;;;;;;42.22;24.80;;;4.10;99.90;;;;;;5072425;28;20094;-72
2022/03/02 02:45:50;;;;;;;44.70;26.48;;;4.00;99.90;;;;;;5072416;28;20056;-72
2022/03/02 02:48:18;;;;;;;42.58;26.05;;;3.90;99.90;;;;;;5072148;28;20057;-72
2022/03/02 02:50:45;;;;;;;45.40;26.48;;;3.90;99.90;;;;;;5072472;28;20052;-72
2022/03/02 02:53:13;;;;;;;42.95;25.77;;;3.80;99.90;;;;;;5072548;28;20101;-72
2022/03/02 02:55:43;;;;;;;42.25;25.05;;;3.70;99.90;;;;;;5072452;28;20094;-73
2022/03/02 02:58:11;;;;;;;44.22;27.15;;;3.70;99.90;;;;;;5072435;28;20130;-73
2022/03/02 03:00:41;;;;;;;44.08;26.25;;;3.60;99.90;;;;;;5071991;28;20407;-73
2022/03/02 03:03:08;;;;;;;48.42;27.77;;;3.50;99.90;;;;;;5071578;28;20044;-74
2022/03/02 03:05:35;;;;;;;46.38;27.75;;;3.50;99.90;;;;;;5072161;28;20522;-74
2022/03/02 03:08:05;;;;;;;47.50;27.05;;;3.40;99.90;;;;;;5071247;28;20102;-74
2022/03/02 03:10:32;;;;;;;49.10;27.42;;;3.40;99.90;;;;;;5071957;28;20499;-73
2022/03/02 03:13:01;;;;;;;44.58;27.23;;;4.10;99.90;;;;;;5071702;28;20514;-73
2022/03/02 03:15:29;;;;;;;49.67;28.25;;;3.30;99.90;;;;;;5071514;28;20090;-72
2022/03/02 03:17:56;;;;;;;49.10;28.35;;;3.30;99.90;;;;;;5071626;28;20060;-72
2022/03/02 03:20:25;;;;;;;54.22;30.02;;;3.30;99.90;;;;;;5071762;28;20094;-72
2022/03/02 03:22:53;;;;;;;49.33;29.05;;;3.20;99.90;;;;;;5070968;28;20469;-72
2022/03/02 03:25:21;;;;;;;47.60;27.52;;;3.10;99.90;;;;;;5070930;28;20482;-71
2022/03/02 03:27:48;;;;;;;50.03;28.45;;;3.10;99.90;;;;;;5071455;28;20052;-71
2022/03/02 03:30:22;;;;;;;47.25;26.58;;;3.10;99.90;;;;;;5071340;28;20084;-72
2022/03/02 03:32:49;;;;;;;;;;;3.00;99.90;;;;;;5071870;28;20496;-70
2022/03/02 03:35:18;;;;;;;47.00;27.60;;;3.10;99.90;;;;;;5071795;28;19928;-72
2022/03/02 03:37:46;;;;;;;49.20;27.92;;;3.00;99.90;;;;;;5070904;28;20395;-71
2022/03/02 03:40:15;;;;;;;46.47;27.27;;;3.00;99.90;;;;;;5071462;28;20044;-71
2022/03/02 03:42:42;;;;;;;46.80;27.48;;;3.00;99.90;;;;;;5071191;28;20053;-72
2022/03/02 03:45:10;;;;;;;42.85;26.75;;;2.90;99.90;;;;;;5070811;28;20048;-72
2022/03/02 03:47:39;;;;;;;47.80;27.73;;;2.90;99.90;;;;;;5071127;28;20102;-72
2022/03/02 03:50:08;;;;;;;47.47;28.10;;;2.80;99.90;;;;;;5070563;28;20053;-71
2022/03/02 03:52:35;;;;;;;48.95;28.17;;;2.80;99.90;;;;;;5071320;28;20052;-71
2022/03/02 03:55:03;;;;;;;46.05;26.80;;;2.70;99.90;;;;;;5071406;28;20507;-72
2022/03/02 03:57:30;;;;;;;49.53;26.40;;;2.70;99.90;;;;;;5069832;28;20048;-72
2022/03/02 03:59:57;;;;;;;46.65;24.90;;;2.70;99.90;;;;;;5070378;28;20052;-72
2022/03/02 04:02:24;;;;;;;45.35;27.20;;;2.60;99.90;;;;;;5070588;28;20640;-71
2022/03/02 04:04:55;;;;;;;47.60;27.40;;;2.60;99.90;;;;;;5070719;28;20098;-72
2022/03/02 04:07:22;;;;;;;47.63;26.92;;;2.60;99.90;;;;;;5070704;28;20114;-73
2022/03/02 04:09:49;;;;;;;50.63;27.30;;;2.50;99.90;;;;;;5070995;28;20164;-73
2022/03/02 04:12:17;;;;;;;51.90;29.80;;;2.50;99.90;;;;;;5069971;28;20052;-71
2022/03/02 04:14:44;;;;;;;51.67;27.73;;;2.50;99.90;;;;;;5070758;28;20052;-71
2022/03/02 04:17:11;;;;;;;43.45;26.45;;;2.50;99.90;;;;;;5070323;28;20052;-72
2022/03/02 04:19:39;;;;;;;54.50;29.08;;;2.50;99.90;;;;;;5070179;28;20052;-71
2022/03/02 04:22:07;;;;;;;47.22;28.38;;;2.50;99.90;;;;;;5070600;28;20084;-70
2022/03/02 04:24:34;;;;;;;50.65;27.88;;;2.40;99.90;;;;;;5070458;28;20048;-71
2022/03/02 04:27:01;;;;;;;50.80;28.20;;;2.70;99.90;;;;;;5069845;28;20431;-72
2022/03/02 04:29:28;;;;;;;51.22;27.90;;;2.40;99.90;;;;;;5070389;28;20492;-72
2022/03/02 04:31:55;;;;;;;51.13;30.17;;;2.30;99.90;;;;;;5069991;28;20470;-72
2022/03/02 04:34:22;;;;;;;44.72;26.25;;;2.30;99.90;;;;;;5069969;28;20186;-73
2022/03/02 04:36:48;;;;;;;47.17;27.27;;;2.20;99.90;;;;;;5070022;28;20102;-72
2022/03/02 04:39:17;;;;;;;46.08;28.23;;;2.20;99.90;;;;;;5069801;28;20048;-73
2022/03/02 04:41:44;;;;;;;49.72;28.73;;;2.20;99.90;;;;;;5070311;28;20091;-67
2022/03/02 04:44:11;;;;;;;54.20;27.80;;;2.20;99.90;;;;;;5064619;28;20040;-67
2022/03/02 04:46:38;;;;;;;45.30;27.30;;;2.20;99.90;;;;;;5054597;28;20106;-66
2022/03/02 04:49:12;;;;;;;47.38;28.40;;;2.20;99.90;;;;;;5061331;28;20052;-67
2022/03/02 04:51:40;;;;;;;47.53;27.65;;;2.20;99.90;;;;;;5062413;28;20076;-67
2022/03/02 04:54:07;;;;;;;51.75;28.23;;;2.20;99.90;;;;;;5064699;28;20209;-66
2022/03/02 04:56:36;;;;;;;51.67;28.25;;;2.10;99.90;;;;;;5062253;28;20045;-67
2022/03/02 04:59:03;;;;;;;47.97;27.65;;;2.10;99.90;;;;;;5065710;28;20064;-65
2022/03/02 05:01:30;;;;;;;49.67;28.17;;;2.00;99.90;;;;;;5061282;28;20084;-67
2022/03/02 05:03:57;;;;;;;48.22;26.70;;;2.00;99.90;;;;;;5066695;28;20106;-66
2022/03/02 05:06:26;;;;;;;47.17;27.05;;;2.00;99.90;;;;;;5063545;28;20048;-67
2022/03/02 05:08:53;;;;;;;48.38;26.92;;;1.90;99.90;;;;;;5063165;28;20128;-67
2022/03/02 05:11:21;;;;;;;52.50;27.00;;;1.90;99.90;;;;;;5062767;28;20041;-66
2022/03/02 05:13:52;;;;;;;53.28;28.65;;;1.90;99.90;;;;;;5066116;28;20072;-67
2022/03/02 05:16:22;;;;;;;;;;;1.80;99.90;;;;;;5062411;28;20188;-67
2022/03/02 05:18:49;;;;;;;44.72;26.13;;;1.80;99.90;;;;;;5061654;28;20010;-66
2022/03/02 05:21:16;;;;;;;47.08;28.13;;;1.80;99.90;;;;;;5062488;28;20473;-67
2022/03/02 05:23:45;;;;;;;47.88;26.92;;;1.70;99.90;;;;;;5060937;28;20079;-67
2022/03/02 05:26:12;;;;;;;43.38;27.60;;;1.80;99.90;;;;;;5065780;28;20061;-66
2022/03/02 05:28:39;;;;;;;47.75;28.73;;;1.70;99.90;;;;;;5061561;28;20086;-67
2022/03/02 05:31:07;;;;;;;48.00;27.42;;;1.70;99.90;;;;;;5066996;28;20048;-67
2022/03/02 05:33:34;;;;;;;46.42;26.60;;;1.70;99.90;;;;;;5062792;28;20149;-67
2022/03/02 05:36:00;;;;;;;52.75;28.85;;;1.70;99.90;;;;;;5061530;28;20118;-67
2022/03/02 05:38:27;;;;;;;48.40;27.95;;;1.60;99.90;;;;;;5063296;28;20041;-67
2022/03/02 05:40:54;;;;;;;49.75;27.67;;;1.60;99.90;;;;;;5064087;28;20876;-67
2022/03/02 05:43:21;;;;;;;45.85;27.60;;;1.60;99.90;;;;;;5066985;28;20503;-66
2022/03/02 05:45:48;;;;;;;48.53;27.92;;;1.50;99.90;;;;;;5062361;28;20419;-67
2022/03/02 05:48:17;;;;;;;52.65;28.27;;;1.50;99.90;;;;;;5064572;28;20056;-67
2022/03/02 05:50:43;;;;;;;45.78;26.23;;;1.40;99.90;;;;;;5064680;28;20052;-66
2022/03/02 05:53:10;;;;;;;50.97;29.30;;;1.40;99.90;;;;;;5067200;28;20040;-67
2022/03/02 05:55:37;;;;;;;51.15;29.77;;;1.40;99.90;;;;;;5064636;28;20566;-66
2022/03/02 05:58:04;;;;;;;52.83;29.38;;;1.40;99.90;;;;;;5066332;28;20052;-66
2022/03/02 06:00:31;;;;;;;49.05;27.35;;;1.40;99.90;;;;;;5069513;28;20048;-66
2022/03/02 06:02:58;;;;;;;46.25;27.05;;;1.40;99.90;;;;;;5067506;28;20060;-67
2022/03/02 06:05:26;;;;;;;48.88;27.60;;;1.40;99.90;;;;;;5063871;28;20060;-67
2022/03/02 06:07:53;;;;;;;46.65;27.90;;;1.40;99.90;;;;;;5060219;28;20065;-67
2022/03/02 06:10:20;;;;;;;45.60;27.02;;;1.40;99.90;;;;;;5055180;28;20045;-66
2022/03/02 06:12:48;;;;;;;49.05;27.73;;;1.40;99.90;;;;;;5051111;28;20052;-67
2022/03/02 06:15:15;;;;;;;46.90;26.55;;;1.30;99.90;;;;;;5055582;28;20082;-66
2022/03/02 06:17:42;;;;;;;48.85;27.58;;;1.30;99.90;;;;;;5064781;28;20091;-67
2022/03/02 06:20:11;;;;;;;47.60;28.48;;;1.30;99.90;;;;;;5051456;28;20085;-66
2022/03/02 06:22:40;;;;;;;50.03;28.38;;;1.30;99.90;;;;;;5068967;28;20059;-67
2022/03/02 06:25:08;;;;;;;43.92;26.77;;;1.30;99.90;;;;;;5050673;28;20531;-66
2022/03/02 06:27:35;;;;;;;45.83;27.75;;;1.30;99.90;;;;;;5050274;28;20049;-66
2022/03/02 06:30:02;;;;;;;47.00;28.20;;;1.30;99.90;;;;;;5062031;28;20056;-68
2022/03/02 06:32:29;;;;;;;48.40;27.95;;;1.30;99.90;;;;;;5063599;28;20458;-68
2022/03/02 06:34:58;;;;;;;49.15;28.75;;;1.30;99.90;;;;;;5065695;28;20445;-67
2022/03/02 06:37:26;;;;;;;46.42;29.33;;;1.30;99.90;;;;;;5059916;28;20095;-68
2022/03/02 06:39:54;;;;;;;45.50;26.90;;;1.30;99.90;;;;;;5054321;28;20139;-68
2022/03/02 06:42:24;;;;;;;46.00;25.60;;;1.30;99.90;;;;;;5062333;28;20475;-70
2022/03/02 06:44:56;;;;;;;45.42;27.23;;;1.30;99.90;;;;;;5067183;28;20048;-68
2022/03/02 06:47:27;;;;;;;49.15;28.45;;;1.40;99.90;;;;;;5068622;28;20053;-66
2022/03/02 06:49:59;;;;;;;;;;;1.40;99.90;;;;;;5059851;28;20280;-67
2022/03/02 06:52:32;;;;;;;46.80;26.33;;;2.30;99.90;;;;;;5066562;28;20452;-66
2022/03/02 06:55:03;;;;;;;54.97;28.40;;;1.40;99.90;;;;;;5051961;28;20051;-66
2022/03/02 06:57:31;;;;;;;47.97;28.52;;;1.50;99.90;;;;;;5053108;28;20071;-66
2022/03/02 07:00:01;;;;;;;50.17;28.20;;;1.50;99.90;;;;;;5050476;28;20056;-66
2022/03/02 07:02:38;;;;;;;43.42;25.50;;;1.60;99.90;;;;;;5053355;28;20499;-66
2022/03/02 07:05:06;;;;;;;44.38;26.27;;;1.70;99.90;;;;;;5069011;28;20503;-67
2022/03/02 07:07:35;;;;;;;46.72;27.30;;;1.80;99.90;;;;;;5050899;28;20102;-66
2022/03/02 07:10:04;;;;;;;47.97;27.70;;;1.80;99.90;;;;;;5070874;28;20139;-67
2022/03/02 07:12:31;;;;;;;47.85;27.83;;;1.80;99.90;;;;;;5059699;28;20041;-66
2022/03/02 07:14:58;;;;;;;48.65;26.42;;;1.90;99.90;;;;;;5062206;28;20063;-66
2022/03/02 07:25:20;;;;;;;46.88;26.35;;;2.20;99.90;;;;;;5072606;28;20048;-66
2022/03/02 07:27:49;;;;;;;47.15;26.65;;;2.30;99.90;;;;;;5053383;28;20061;-66
2022/03/02 07:30:17;;;;;;;47.72;27.50;;;2.40;99.90;;;;;;5066518;28;20045;-66
2022/03/02 07:32:46;;;;;;;47.42;26.48;;;2.80;99.90;;;;;;5072242;28;20098;-66
2022/03/02 07:35:14;;;;;;;43.65;24.70;;;3.60;99.90;;;;;;5072739;28;20049;-67
2022/03/02 07:37:43;;;;;;;40.67;25.27;;;4.50;99.90;;;;;;5072386;28;20053;-66
2022/03/02 07:40:11;;;;;;;46.20;24.98;;;5.50;99.90;;;;;;5072501;28;20500;-66
2022/03/02 07:42:40;;;;;;;37.90;25.13;;;6.20;99.90;;;;;;5071485;28;20094;-66
2022/03/02 07:45:08;;;;;;;39.92;25.45;;;7.00;99.90;;;;;;5072518;28;20098;-67
2022/03/02 07:47:36;;;;;;;39.85;25.08;;;7.30;99.90;;;;;;5072707;28;20651;-67
2022/03/02 07:50:03;;;;;;;38.95;25.65;;;7.80;99.90;;;;;;5072276;28;20148;-67
2022/03/02 07:52:31;;;;;;;38.53;23.92;;;8.20;99.90;;;;;;5072821;28;20450;-69
2022/03/02 07:55:03;;;;;;;39.47;24.13;;;8.60;99.90;;;;;;5072877;28;20044;-68
2022/03/02 07:57:31;;;;;;;39.10;24.38;;;9.10;99.90;;;;;;5072207;28;20446;-67
2022/03/02 08:00:00;;;;;;;43.90;23.63;;;9.40;99.90;;;;;;5071935;28;20070;-67
2022/03/02 08:02:30;;;;;;;36.10;24.40;;;9.60;99.90;;;;;;5072448;28;20080;-68
2022/03/02 08:04:57;;;;;;;35.40;23.73;;;10.00;99.90;;;;;;5071823;28;20044;-67
2022/03/02 08:07:25;;;;;;;34.00;22.63;;;10.20;99.90;;;;;;5073687;28;20162;-67
2022/03/02 08:09:53;;;;;;;37.22;24.23;;;10.50;99.90;;;;;;5071584;28;20056;-67
2022/03/02 08:12:21;;;;;;;36.38;23.30;;;10.50;99.90;;;;;;5071697;28;20090;-67
2022/03/02 08:14:52;;;;;;;37.45;23.58;;;10.90;99.90;;;;;;5072151;28;20076;-67
2022/03/02 08:17:21;;;;;;;34.25;22.48;;;11.20;99.90;;;;;;5072261;28;20049;-67
2022/03/02 08:19:48;;;;;;;34.72;22.90;;;11.20;99.90;;;;;;5071871;28;20049;-67
2022/03/02 08:22:17;;;;;;;36.58;23.85;;;11.20;99.90;;;;;;5072410;28;20118;-67
2022/03/02 08:24:47;;;;;;;32.15;22.77;;;11.40;99.90;;;;;;5071433;28;20139;-67
2022/03/02 08:27:15;;;;;;;;;;;11.70;99.90;;;;;;5072786;28;20052;-68
2022/03/02 08:29:43;;;;;;;30.65;22.08;;;11.80;98.30;;;;;;5071902;28;19921;-67
2022/03/02 08:32:13;;;;;;;32.05;22.67;;;12.20;98.90;;;;;;5071501;28;20110;-67
2022/03/02 08:34:44;;;;;;;31.52;22.95;;;12.10;97.30;;;;;;5072119;28;20071;-67
2022/03/02 08:37:11;;;;;;;30.80;21.35;;;12.40;96.80;;;;;;5071568;28;20131;-67
2022/03/02 08:39:38;;;;;;;31.77;22.20;;;12.30;96.20;;;;;;5071523;28;20052;-67
2022/03/02 08:42:05;;;;;;;38.72;22.63;;;12.40;96.50;;;;;;5071493;28;20044;-67
2022/03/02 08:44:32;;;;;;;31.58;21.80;;;13.00;96.70;;;;;;5071983;28;20118;-69
2022/03/02 08:46:59;;;;;;;30.52;21.73;;;13.20;94.40;;;;;;5071449;28;20056;-68
2022/03/02 08:49:26;;;;;;;31.05;21.73;;;13.00;93.30;;;;;;5072641;28;20045;-68
2022/03/02 08:51:56;;;;;;;29.67;22.13;;;13.40;94.00;;;;;;5072841;28;20052;-68
2022/03/02 08:54:25;;;;;;;28.40;21.92;;;13.50;91.70;;;;;;5071134;28;20056;-68
2022/03/02 08:56:54;;;;;;;31.27;21.08;;;13.60;92.10;;;;;;5071540;28;20553;-67
2022/03/02 08:59:26;;;;;;;27.30;20.50;;;13.60;90.90;;;;;;5071314;28;20098;-69
2022/03/02 09:01:54;;;;;;;28.77;21.52;;;14.00;91.20;;;;;;5070787;28;20139;-69
2022/03/02 09:04:23;;;;;;;32.33;21.63;;;13.90;89.00;;;;;;5071477;28;20049;-68
2022/03/02 09:06:55;;;;;;;28.08;21.15;;;14.60;88.00;;;;;;5070762;28;20079;-67
2022/03/02 09:09:22;;;;;;;28.10;19.85;;;14.40;88.00;;;;;;5071461;28;20122;-69
2022/03/02 09:11:49;;;;;;;27.83;20.88;;;14.50;85.90;;;;;;5071653;28;20057;-68
2022/03/02 09:14:21;;;;;;;24.40;19.38;;;14.90;85.60;;;;;;5071094;28;20052;-68
2022/03/02 09:16:51;;;;;;;30.08;20.58;;;14.70;84.20;;;;;;5071547;28;20140;-68
2022/03/02 09:19:18;;;;;;;30.20;22.23;;;14.90;84.80;;;;;;5071206;28;20052;-69
2022/03/02 09:21:45;;;;;;;28.33;21.77;;;14.80;83.40;;;;;;5071223;28;20052;-68
2022/03/02 09:24:14;;;;;;;32.55;22.40;;;15.00;84.00;;;;;;5075637;28;20063;-68
2022/03/02 09:26:41;;;;;;;26.88;21.27;;;15.20;83.30;;;;;;5058249;28;20451;-68
2022/03/02 09:29:09;;;;;;;28.48;20.77;;;15.20;84.50;;;;;;5054753;28;20493;-67
2022/03/02 09:31:37;;;;;;;28.00;21.50;;;15.10;82.30;;;;;;5055152;28;20053;-68
2022/03/02 09:34:08;;;;;;;27.77;21.95;;;15.60;81.30;;;;;;5068857;28;20060;-68
2022/03/02 09:36:37;;;;;;;28.58;20.60;;;15.60;80.20;;;;;;5074471;28;20045;-67
2022/03/02 09:39:06;;;;;;;26.05;20.35;;;15.80;79.70;;;;;;5075113;28;20472;-68
2022/03/02 09:41:43;;;;;;;25.93;20.87;;;15.80;82.00;;;;;;5061729;28;20056;-68
2022/03/02 09:44:13;;;;;;;30.45;21.00;;;16.00;79.50;;;;;;5053553;28;20060;-68
2022/03/02 09:46:40;;;;;;;29.60;20.90;;;16.20;79.80;;;;;;5053474;28;20057;-68
2022/03/02 09:49:09;;;;;;;28.05;21.88;;;16.00;78.30;;;;;;5054468;28;20057;-68
2022/03/02 09:51:39;;;;;;;27.02;20.02;;;16.00;78.20;;;;;;5066868;28;20488;-68
2022/03/02 09:54:08;;;;;;;25.38;19.67;;;15.80;78.70;;;;;;5074469;28;20125;-68
2022/03/02 09:56:38;;;;;;;30.63;21.38;;;16.60;78.30;;;;;;5063362;28;20067;-68
2022/03/02 09:59:08;;;;;;;29.05;20.52;;;17.10;76.90;;;;;;5054344;28;20454;-68
2022/03/02 10:01:38;;;;;;;24.40;18.80;;;17.20;76.60;;;;;;5054328;28;20467;-68
2022/03/02 10:04:17;;;;;;;25.88;19.58;;;17.40;74.50;;;;;;5054370;28;20055;-68
2022/03/02 10:06:45;;;;;;;27.38;20.25;;;17.80;73.90;;;;;;5064238;28;20052;-68
2022/03/02 10:09:13;;;;;;;24.58;20.15;;;17.60;73.20;;;;;;5073982;28;20056;-68
2022/03/02 10:11:44;;;;;;;24.48;18.65;;;17.90;72.50;;;;;;5055446;28;20048;-68
2022/03/02 10:14:11;;;;;;;27.67;19.17;;;17.60;72.20;;;;;;5054872;28;20053;-68
2022/03/02 10:16:45;;;;;;;24.08;19.65;;;17.70;71.20;;;;;;5054409;28;20041;-68
2022/03/02 10:19:23;;;;;;;26.00;19.13;;;17.40;69.70;;;;;;5055866;28;20084;-68
2022/03/02 10:22:07;;;;;;;23.70;18.27;;;17.50;69.40;;;;;;5053276;28;20056;-69
2022/03/02 10:24:44;;;;;;;25.73;18.75;;;17.70;69.30;;;;;;5066361;28;20059;-68
2022/03/02 10:27:25;;;;;;;26.20;18.95;;;17.40;68.20;;;;;;5053036;28;20459;-68
2022/03/02 10:30:06;;;;;;;25.83;19.65;;;17.60;67.20;;;;;;5054351;28;20061;-68
2022/03/02 10:32:36;;;;;;;23.15;18.48;;;17.80;67.70;;;;;;5072203;28;20504;-67
2022/03/02 10:35:09;;;;;;;26.67;18.58;;;18.20;66.80;;;;;;5053402;28;20144;-69
2022/03/02 10:37:38;;;;;;;26.67;18.35;;;18.30;66.00;;;;;;5054064;28;20056;-69
2022/03/02 10:40:10;;;;;;;23.55;18.42;;;18.00;65.90;;;;;;5054301;28;20083;-68
2022/03/02 10:42:41;;;;;;;23.92;18.85;;;18.20;66.00;;;;;;5072190;28;20451;-68
2022/03/02 10:45:12;;;;;;;24.42;18.58;;;18.10;65.70;;;;;;5072282;28;20569;-69
2022/03/02 10:47:48;;;;;;;22.77;18.60;;;17.80;65.40;;;;;;5073977;28;20491;-68
2022/03/02 10:50:16;;;;;;;24.40;18.10;;;18.20;64.00;;;;;;5074053;28;20056;-69
2022/03/02 10:52:48;;;;;;;24.50;18.48;;;17.90;63.50;;;;;;5073641;28;20157;-69
2022/03/02 10:55:15;;;;;;;22.50;18.50;;;18.00;63.60;;;;;;5074467;28;20139;-68
2022/03/02 10:57:48;;;;;;;21.48;18.15;;;18.30;64.00;;;;;;5074003;28;20518;-69
2022/03/02 11:00:18;;;;;;;23.52;18.38;;;18.10;63.90;;;;;;5073224;28;20132;-69
2022/03/02 11:02:48;;;;;;;25.58;18.95;;;17.90;63.50;;;;;;5055125;28;20049;-68
2022/03/02 11:05:16;;;;;;;;;;;17.80;62.80;;;;;;5061695;28;20052;-69
2022/03/02 11:07:43;;;;;;;23.98;17.85;;;18.40;63.20;;;;;;5074574;28;20337;-68
2022/03/02 11:10:13;;;;;;;22.60;18.00;;;18.30;62.00;;;;;;5074099;28;20055;-69
2022/03/02 11:12:43;;;;;;;21.58;18.67;;;18.40;62.90;;;;;;5073630;28;20064;-69
2022/03/02 11:15:12;;;;;;;21.17;17.50;;;19.00;63.50;;;;;;5073426;28;20048;-69
2022/03/02 11:17:54;;;;;;;24.10;18.65;;;18.50;62.50;;;;;;5073509;28;20080;-68
2022/03/02 11:20:23;;;;;;;23.25;17.80;;;18.60;62.20;;;;;;5074267;28;20053;-68
2022/03/02 11:22:55;;;;;;;21.27;17.95;;;18.90;62.70;;;;;;5073678;28;20075;-69
2022/03/02 11:25:44;;;;;;;21.75;16.63;;;18.50;61.80;;;;;;5073486;28;20480;-69
2022/03/02 11:28:16;;;;;;;20.90;16.77;;;18.80;61.10;;;;;;5072517;28;20102;-69
2022/03/02 11:30:51;;;;;;;22.92;17.17;;;18.80;61.30;;;;;;5074736;28;20084;-69
2022/03/02 11:33:23;;;;;;;21.98;18.02;;;18.80;61.70;;;;;;5073687;28;20131;-69
2022/03/02 11:35:53;;;;;;;23.00;17.25;;;18.60;61.70;;;;;;5072445;28;20491;-69
2022/03/02 11:38:21;;;;;;;;;;;18.70;61.90;;;;;;5073494;28;20488;-69
2022/03/02 11:40:50;;;;;;;19.75;14.85;;;18.90;59.40;;;;;;5072779;28;19967;-71
2022/03/02 11:43:21;;;;;;;21.73;14.77;;;19.10;60.40;;;;;;5056063;28;20455;-69
2022/03/02 11:45:49;;;;;;;22.75;15.75;;;19.30;59.20;;;;;;5061590;28;20045;-70
2022/03/02 11:48:22;;;;;;;20.25;15.75;;;19.00;58.70;;;;;;5052854;28;20051;-68
2022/03/02 11:51:13;;;;;;;21.00;14.82;;;19.20;58.50;;;;;;5051241;28;20098;-69
2022/03/02 11:53:43;;;;;;;19.90;15.32;;;19.40;57.90;;;;;;5056144;28;20497;-69
2022/03/02 11:56:13;;;;;;;21.35;17.13;;;20.20;58.70;;;;;;5052512;28;20075;-69
2022/03/02 11:59:03;;;;;;;19.17;15.15;;;20.00;57.80;;;;;;5056360;28;20045;-69
2022/03/02 12:01:38;;;;;;;;;;;21.00;57.50;;;;;;5051990;28;20063;-69
2022/03/02 12:04:07;;;;;;;21.75;16.20;;;20.20;57.30;;;;;;5070489;28;20379;-69
2022/03/02 12:06:40;;;;;;;22.90;15.68;;;20.00;58.40;;;;;;5051799;28;20048;-69
2022/03/02 12:09:07;;;;;;;19.52;15.70;;;20.00;57.40;;;;;;5054500;28;20489;-69
2022/03/02 12:11:38;;;;;;;19.05;15.23;;;19.50;58.60;;;;;;5051162;28;20064;-69
2022/03/02 12:14:08;;;;;;;20.05;15.10;;;19.50;58.30;;;;;;5052000;28;20424;-69
2022/03/02 12:16:40;;;;;;;17.17;14.05;;;20.00;58.00;;;;;;5070803;28;20056;-69
2022/03/02 12:19:19;;;;;;;18.60;14.68;;;20.20;57.20;;;;;;5056627;28;20102;-69
2022/03/02 12:21:47;;;;;;;19.10;15.70;;;19.90;56.50;;;;;;5051168;28;20091;-70
2022/03/02 12:24:21;;;;;;;17.85;14.15;;;19.90;56.30;;;;;;5055281;28;20416;-70
2022/03/02 12:26:51;;;;;;;19.20;15.55;;;20.00;54.40;;;;;;5053259;28;20057;-70
2022/03/02 12:29:21;;;;;;;20.17;15.55;;;20.00;56.50;;;;;;5055340;28;20087;-70
2022/03/02 12:31:49;;;;;;;19.75;15.10;;;19.60;57.00;;;;;;5061393;28;20098;-70
2022/03/02 12:34:18;;;;;;;19.10;14.98;;;19.90;57.10;;;;;;5063222;28;20099;-69
2022/03/02 12:36:46;;;;;;;18.95;14.38;;;20.00;55.80;;;;;;5064977;28;20055;-69
2022/03/02 12:39:14;;;;;;;19.48;14.75;;;20.00;56.60;;;;;;5054284;28;20052;-69
2022/03/02 12:41:40;;;;;;;21.10;15.18;;;20.50;55.90;;;;;;5059903;28;20055;-68
2022/03/02 12:44:09;;;;;;;20.25;15.27;;;20.40;55.40;;;;;;5056632;28;20118;-70
2022/03/02 12:46:38;;;;;;;21.50;14.85;;;20.60;55.10;;;;;;5063540;28;20052;-70
2022/03/02 12:49:07;;;;;;;19.73;14.18;;;20.70;55.40;;;;;;5052125;28;20114;-69
2022/03/02 12:51:37;;;;;;;20.50;15.73;;;20.30;55.10;;;;;;5050547;28;20053;-69